sensor_id;sensor_type;location;lat;lon;timestamp;temperature;humidity
44271;DHT22;29963;44.594;11.368;2023-05-24T00:00:30;21.30;99.90
44271;DHT22;29963;44.594;11.368;2023-05-24T00:02:56;21.20;99.90
44271;DHT22;29963;44.594;11.368;2023-05-24T00:05:22;21.10;99.90
44271;DHT22;29963;44.594;11.368;2023-05-24T00:07:48;20.90;99.90
44271;DHT22;29963;44.594;11.368;2023-05-24T00:10:13;20.80;99.90
44271;DHT22;29963;44.594;11.368;2023-05-24T00:12:39;20.70;99.90
44271;DHT22;29963;44.594;11.368;2023-05-24T00:15:05;20.60;99.90
44271;DHT22;29963;44.594;11.368;2023-05-24T00:17:31;20.70;99.90
44271;DHT22;29963;44.594;11.368;2023-05-24T00:19:59;20.60;99.90
44271;DHT22;29963;44.594;11.368;2023-05-24T00:22:24;20.60;99.90
44271;DHT22;29963;44.594;11.368;2023-05-24T00:24:50;20.50;99.90
44271;DHT22;29963;44.594;11.368;2023-05-24T00:27:16;20.40;99.90
44271;DHT22;29963;44.594;11.368;2023-05-24T00:29:41;20.20;99.90
44271;DHT22;29963;44.594;11.368;2023-05-24T00:32:07;20.10;99.90
44271;DHT22;29963;44.594;11.368;2023-05-24T00:34:33;20.10;99.90
44271;DHT22;29963;44.594;11.368;2023-05-24T00:36:58;20.00;99.90
44271;DHT22;29963;44.594;11.368;2023-05-24T00:39:25;20.00;99.90
44271;DHT22;29963;44.594;11.368;2023-05-24T00:41:50;20.00;99.90
44271;DHT22;29963;44.594;11.368;2023-05-24T00:44:16;19.90;99.90
44271;DHT22;29963;44.594;11.368;2023-05-24T00:46:42;19.80;99.90
44271;DHT22;29963;44.594;11.368;2023-05-24T00:49:08;19.90;99.90
44271;DHT22;29963;44.594;11.368;2023-05-24T00:51:34;19.80;99.90
44271;DHT22;29963;44.594;11.368;2023-05-24T00:54:01;19.80;99.90
44271;DHT22;29963;44.594;11.368;2023-05-24T00:56:27;19.80;99.90
44271;DHT22;29963;44.594;11.368;2023-05-24T00:58:53;19.80;99.90
44271;DHT22;29963;44.594;11.368;2023-05-24T01:01:20;19.80;99.90
44271;DHT22;29963;44.594;11.368;2023-05-24T01:03:51;19.80;99.90
44271;DHT22;29963;44.594;11.368;2023-05-24T01:06:18;19.80;99.90
44271;DHT22;29963;44.594;11.368;2023-05-24T01:11:37;19.70;99.90
44271;DHT22;29963;44.594;11.368;2023-05-24T01:14:32;19.80;99.90
44271;DHT22;29963;44.594;11.368;2023-05-24T01:17:09;19.80;99.90
44271;DHT22;29963;44.594;11.368;2023-05-24T01:20:08;19.90;99.90
44271;DHT22;29963;44.594;11.368;2023-05-24T01:27:39;19.80;99.90
44271;DHT22;29963;44.594;11.368;2023-05-24T01:30:06;19.80;99.90
44271;DHT22;29963;44.594;11.368;2023-05-24T01:32:32;19.80;99.90
44271;DHT22;29963;44.594;11.368;2023-05-24T01:34:58;19.80;99.90
44271;DHT22;29963;44.594;11.368;2023-05-24T01:37:24;19.80;99.90
44271;DHT22;29963;44.594;11.368;2023-05-24T01:39:50;19.80;99.90
44271;DHT22;29963;44.594;11.368;2023-05-24T01:42:22;19.90;99.90
44271;DHT22;29963;44.594;11.368;2023-05-24T01:50:21;19.80;99.90
44271;DHT22;29963;44.594;11.368;2023-05-24T01:52:50;19.70;99.90
44271;DHT22;29963;44.594;11.368;2023-05-24T01:55:17;19.80;99.90
44271;DHT22;29963;44.594;11.368;2023-05-24T01:57:45;19.70;99.90
44271;DHT22;29963;44.594;11.368;2023-05-24T02:00:13;19.70;99.90
44271;DHT22;29963;44.594;11.368;2023-05-24T02:02:40;19.70;99.90
44271;DHT22;29963;44.594;11.368;2023-05-24T02:05:06;19.70;99.90
44271;DHT22;29963;44.594;11.368;2023-05-24T02:07:32;19.70;99.90
44271;DHT22;29963;44.594;11.368;2023-05-24T02:09:57;19.60;99.90
44271;DHT22;29963;44.594;11.368;2023-05-24T02:12:23;19.60;99.90
44271;DHT22;29963;44.594;11.368;2023-05-24T02:14:48;19.50;99.90
44271;DHT22;29963;44.594;11.368;2023-05-24T02:17:18;19.40;99.90
44271;DHT22;29963;44.594;11.368;2023-05-24T02:19:43;19.30;99.90
44271;DHT22;29963;44.594;11.368;2023-05-24T02:22:09;19.40;99.90
44271;DHT22;29963;44.594;11.368;2023-05-24T02:24:35;19.40;99.90
44271;DHT22;29963;44.594;11.368;2023-05-24T02:27:02;19.40;99.90
44271;DHT22;29963;44.594;11.368;2023-05-24T02:29:28;19.50;99.90
44271;DHT22;29963;44.594;11.368;2023-05-24T02:31:53;19.50;99.90
44271;DHT22;29963;44.594;11.368;2023-05-24T02:34:21;19.40;99.90
44271;DHT22;29963;44.594;11.368;2023-05-24T02:36:48;19.40;99.90
44271;DHT22;29963;44.594;11.368;2023-05-24T02:39:13;19.40;99.90
44271;DHT22;29963;44.594;11.368;2023-05-24T02:41:39;19.40;99.90
44271;DHT22;29963;44.594;11.368;2023-05-24T02:44:05;19.30;99.90
44271;DHT22;29963;44.594;11.368;2023-05-24T02:46:31;19.20;99.90
44271;DHT22;29963;44.594;11.368;2023-05-24T02:48:57;19.20;99.90
44271;DHT22;29963;44.594;11.368;2023-05-24T02:51:22;19.20;99.90
44271;DHT22;29963;44.594;11.368;2023-05-24T02:53:48;19.10;99.90
44271;DHT22;29963;44.594;11.368;2023-05-24T02:56:14;19.00;99.90
44271;DHT22;29963;44.594;11.368;2023-05-24T02:58:42;19.00;99.90
44271;DHT22;29963;44.594;11.368;2023-05-24T03:01:09;18.90;99.90
44271;DHT22;29963;44.594;11.368;2023-05-24T03:03:37;18.90;99.90
44271;DHT22;29963;44.594;11.368;2023-05-24T03:06:02;18.70;99.90
44271;DHT22;29963;44.594;11.368;2023-05-24T03:08:28;18.70;99.90
44271;DHT22;29963;44.594;11.368;2023-05-24T03:10:54;18.60;99.90
44271;DHT22;29963;44.594;11.368;2023-05-24T03:13:19;18.60;99.90
44271;DHT22;29963;44.594;11.368;2023-05-24T03:15:45;18.60;99.90
44271;DHT22;29963;44.594;11.368;2023-05-24T03:18:10;18.60;99.90
44271;DHT22;29963;44.594;11.368;2023-05-24T03:20:36;18.60;99.90
44271;DHT22;29963;44.594;11.368;2023-05-24T03:23:02;18.60;99.90
44271;DHT22;29963;44.594;11.368;2023-05-24T03:25:27;18.60;99.90
44271;DHT22;29963;44.594;11.368;2023-05-24T03:27:53;18.60;99.90
44271;DHT22;29963;44.594;11.368;2023-05-24T03:30:18;18.60;99.90
44271;DHT22;29963;44.594;11.368;2023-05-24T03:32:44;18.70;99.90
44271;DHT22;29963;44.594;11.368;2023-05-24T03:35:09;18.80;99.90
44271;DHT22;29963;44.594;11.368;2023-05-24T03:37:36;18.90;99.90
44271;DHT22;29963;44.594;11.368;2023-05-24T03:40:02;18.90;99.90
44271;DHT22;29963;44.594;11.368;2023-05-24T03:42:31;19.00;99.90
44271;DHT22;29963;44.594;11.368;2023-05-24T03:44:57;19.00;99.90
44271;DHT22;29963;44.594;11.368;2023-05-24T03:47:22;19.00;99.90
44271;DHT22;29963;44.594;11.368;2023-05-24T03:49:48;19.00;99.90
44271;DHT22;29963;44.594;11.368;2023-05-24T03:52:13;19.00;99.90
44271;DHT22;29963;44.594;11.368;2023-05-24T03:54:39;18.90;99.90
44271;DHT22;29963;44.594;11.368;2023-05-24T03:57:05;18.80;99.90
44271;DHT22;29963;44.594;11.368;2023-05-24T03:59:30;18.60;99.90
44271;DHT22;29963;44.594;11.368;2023-05-24T04:01:56;18.50;99.90
44271;DHT22;29963;44.594;11.368;2023-05-24T04:04:22;18.40;99.90
44271;DHT22;29963;44.594;11.368;2023-05-24T04:06:47;18.30;99.90
44271;DHT22;29963;44.594;11.368;2023-05-24T04:09:14;18.30;99.90
44271;DHT22;29963;44.594;11.368;2023-05-24T04:11:40;18.30;99.90
44271;DHT22;29963;44.594;11.368;2023-05-24T04:14:06;18.30;99.90
44271;DHT22;29963;44.594;11.368;2023-05-24T04:16:32;18.30;99.90
44271;DHT22;29963;44.594;11.368;2023-05-24T04:19:04;18.30;99.90
44271;DHT22;29963;44.594;11.368;2023-05-24T04:21:30;18.30;99.90
44271;DHT22;29963;44.594;11.368;2023-05-24T04:23:56;18.30;99.90
44271;DHT22;29963;44.594;11.368;2023-05-24T04:26:24;18.40;99.90
44271;DHT22;29963;44.594;11.368;2023-05-24T04:28:50;18.40;99.90
44271;DHT22;29963;44.594;11.368;2023-05-24T04:31:15;18.40;99.90
44271;DHT22;29963;44.594;11.368;2023-05-24T04:33:41;18.50;99.90
44271;DHT22;29963;44.594;11.368;2023-05-24T04:36:07;18.60;99.90
44271;DHT22;29963;44.594;11.368;2023-05-24T04:38:33;18.60;99.90
44271;DHT22;29963;44.594;11.368;2023-05-24T04:41:00;18.70;99.90
44271;DHT22;29963;44.594;11.368;2023-05-24T04:43:27;18.70;99.90
44271;DHT22;29963;44.594;11.368;2023-05-24T04:45:53;18.80;99.90
44271;DHT22;29963;44.594;11.368;2023-05-24T04:48:23;18.80;99.90
44271;DHT22;29963;44.594;11.368;2023-05-24T04:50:53;18.80;99.90
44271;DHT22;29963;44.594;11.368;2023-05-24T04:53:19;18.80;99.90
44271;DHT22;29963;44.594;11.368;2023-05-24T04:55:45;18.80;99.90
44271;DHT22;29963;44.594;11.368;2023-05-24T04:58:10;18.80;99.90
44271;DHT22;29963;44.594;11.368;2023-05-24T05:00:36;18.80;99.90
44271;DHT22;29963;44.594;11.368;2023-05-24T05:03:02;18.90;99.90
44271;DHT22;29963;44.594;11.368;2023-05-24T05:05:28;18.90;99.90
44271;DHT22;29963;44.594;11.368;2023-05-24T05:07:53;19.00;99.90
44271;DHT22;29963;44.594;11.368;2023-05-24T05:10:19;19.00;99.90
44271;DHT22;29963;44.594;11.368;2023-05-24T05:12:44;19.10;99.90
44271;DHT22;29963;44.594;11.368;2023-05-24T05:15:11;19.10;99.90
44271;DHT22;29963;44.594;11.368;2023-05-24T05:17:37;19.20;99.90
44271;DHT22;29963;44.594;11.368;2023-05-24T05:20:03;19.30;99.90
44271;DHT22;29963;44.594;11.368;2023-05-24T05:22:30;19.30;99.90
44271;DHT22;29963;44.594;11.368;2023-05-24T05:24:55;19.30;99.90
44271;DHT22;29963;44.594;11.368;2023-05-24T05:27:21;19.30;99.90
44271;DHT22;29963;44.594;11.368;2023-05-24T05:29:47;19.40;99.90
44271;DHT22;29963;44.594;11.368;2023-05-24T05:32:12;19.50;99.90
44271;DHT22;29963;44.594;11.368;2023-05-24T05:34:38;19.50;99.90
44271;DHT22;29963;44.594;11.368;2023-05-24T05:37:04;19.60;99.90
44271;DHT22;29963;44.594;11.368;2023-05-24T05:39:29;19.70;99.90
44271;DHT22;29963;44.594;11.368;2023-05-24T05:41:56;19.70;99.90
44271;DHT22;29963;44.594;11.368;2023-05-24T05:44:22;19.80;99.90
44271;DHT22;29963;44.594;11.368;2023-05-24T05:46:47;19.80;99.90
44271;DHT22;29963;44.594;11.368;2023-05-24T05:49:13;19.90;99.90
44271;DHT22;29963;44.594;11.368;2023-05-24T05:51:40;20.00;99.90
44271;DHT22;29963;44.594;11.368;2023-05-24T05:54:06;20.00;99.90
44271;DHT22;29963;44.594;11.368;2023-05-24T05:56:38;20.10;99.90
44271;DHT22;29963;44.594;11.368;2023-05-24T05:59:13;20.20;99.90
44271;DHT22;29963;44.594;11.368;2023-05-24T06:01:40;20.20;99.90
44271;DHT22;29963;44.594;11.368;2023-05-24T06:04:05;20.40;99.90
44271;DHT22;29963;44.594;11.368;2023-05-24T06:06:31;20.40;99.90
44271;DHT22;29963;44.594;11.368;2023-05-24T06:08:58;20.60;99.90
44271;DHT22;29963;44.594;11.368;2023-05-24T06:11:23;20.70;99.90
44271;DHT22;29963;44.594;11.368;2023-05-24T06:13:49;20.70;99.90
44271;DHT22;29963;44.594;11.368;2023-05-24T06:16:15;20.80;99.90
44271;DHT22;29963;44.594;11.368;2023-05-24T06:18:40;20.90;99.90
44271;DHT22;29963;44.594;11.368;2023-05-24T06:21:06;21.00;99.90
44271;DHT22;29963;44.594;11.368;2023-05-24T06:23:35;21.10;99.90
44271;DHT22;29963;44.594;11.368;2023-05-24T06:26:02;21.20;99.90
44271;DHT22;29963;44.594;11.368;2023-05-24T06:28:28;21.10;99.90
44271;DHT22;29963;44.594;11.368;2023-05-24T06:30:53;21.20;99.90
44271;DHT22;29963;44.594;11.368;2023-05-24T06:33:19;21.20;99.90
44271;DHT22;29963;44.594;11.368;2023-05-24T06:35:45;21.20;99.90
44271;DHT22;29963;44.594;11.368;2023-05-24T06:38:11;21.30;99.90
44271;DHT22;29963;44.594;11.368;2023-05-24T06:40:36;21.40;99.90
44271;DHT22;29963;44.594;11.368;2023-05-24T06:43:03;21.40;99.90
44271;DHT22;29963;44.594;11.368;2023-05-24T06:45:29;21.50;99.90
44271;DHT22;29963;44.594;11.368;2023-05-24T06:47:54;21.60;99.90
44271;DHT22;29963;44.594;11.368;2023-05-24T06:50:20;21.70;99.90
44271;DHT22;29963;44.594;11.368;2023-05-24T06:52:46;21.70;99.90
44271;DHT22;29963;44.594;11.368;2023-05-24T06:55:12;21.80;99.90
44271;DHT22;29963;44.594;11.368;2023-05-24T06:57:37;21.80;99.90
44271;DHT22;29963;44.594;11.368;2023-05-24T07:00:03;21.90;99.90
44271;DHT22;29963;44.594;11.368;2023-05-24T07:02:34;22.00;99.90
44271;DHT22;29963;44.594;11.368;2023-05-24T07:04:59;22.00;99.90
44271;DHT22;29963;44.594;11.368;2023-05-24T07:07:25;22.00;99.90
44271;DHT22;29963;44.594;11.368;2023-05-24T07:09:51;22.10;99.90
44271;DHT22;29963;44.594;11.368;2023-05-24T07:12:16;22.10;99.90
44271;DHT22;29963;44.594;11.368;2023-05-24T07:14:42;22.10;99.90
44271;DHT22;29963;44.594;11.368;2023-05-24T07:17:08;22.10;99.90
44271;DHT22;29963;44.594;11.368;2023-05-24T07:19:33;22.20;99.90
44271;DHT22;29963;44.594;11.368;2023-05-24T07:22:00;22.30;99.90
44271;DHT22;29963;44.594;11.368;2023-05-24T07:24:26;22.30;99.90
44271;DHT22;29963;44.594;11.368;2023-05-24T07:26:51;22.30;99.90
44271;DHT22;29963;44.594;11.368;2023-05-24T07:29:22;22.40;99.90
44271;DHT22;29963;44.594;11.368;2023-05-24T07:31:47;22.40;99.90
44271;DHT22;29963;44.594;11.368;2023-05-24T07:34:13;22.40;99.90
44271;DHT22;29963;44.594;11.368;2023-05-24T07:36:39;22.50;99.90
44271;DHT22;29963;44.594;11.368;2023-05-24T07:39:06;22.40;99.90
44271;DHT22;29963;44.594;11.368;2023-05-24T07:41:35;22.40;99.90
44271;DHT22;29963;44.594;11.368;2023-05-24T07:44:01;22.40;99.90
44271;DHT22;29963;44.594;11.368;2023-05-24T07:46:26;22.40;99.90
44271;DHT22;29963;44.594;11.368;2023-05-24T07:48:52;22.50;99.90
44271;DHT22;29963;44.594;11.368;2023-05-24T07:51:18;22.60;99.90
44271;DHT22;29963;44.594;11.368;2023-05-24T07:53:43;22.60;99.90
44271;DHT22;29963;44.594;11.368;2023-05-24T07:56:09;22.60;99.90
44271;DHT22;29963;44.594;11.368;2023-05-24T07:58:35;22.60;99.90
44271;DHT22;29963;44.594;11.368;2023-05-24T08:01:00;22.60;99.90
44271;DHT22;29963;44.594;11.368;2023-05-24T08:03:26;22.60;99.90
44271;DHT22;29963;44.594;11.368;2023-05-24T08:05:52;22.60;99.90
44271;DHT22;29963;44.594;11.368;2023-05-24T08:08:18;22.80;99.90
44271;DHT22;29963;44.594;11.368;2023-05-24T08:10:44;22.80;99.90
44271;DHT22;29963;44.594;11.368;2023-05-24T08:13:10;22.90;99.90
44271;DHT22;29963;44.594;11.368;2023-05-24T08:15:35;22.90;99.90
44271;DHT22;29963;44.594;11.368;2023-05-24T08:18:01;23.00;99.90
44271;DHT22;29963;44.594;11.368;2023-05-24T08:20:27;22.90;99.90
44271;DHT22;29963;44.594;11.368;2023-05-24T08:22:53;22.90;99.90
44271;DHT22;29963;44.594;11.368;2023-05-24T08:25:19;23.00;99.90
44271;DHT22;29963;44.594;11.368;2023-05-24T08:27:45;23.10;99.90
44271;DHT22;29963;44.594;11.368;2023-05-24T08:30:12;23.10;99.90
44271;DHT22;29963;44.594;11.368;2023-05-24T08:32:38;23.10;99.90
44271;DHT22;29963;44.594;11.368;2023-05-24T08:35:04;23.20;99.90
44271;DHT22;29963;44.594;11.368;2023-05-24T08:37:30;23.20;99.90
44271;DHT22;29963;44.594;11.368;2023-05-24T08:39:57;23.20;99.90
44271;DHT22;29963;44.594;11.368;2023-05-24T08:42:24;23.20;99.90
44271;DHT22;29963;44.594;11.368;2023-05-24T08:45:02;23.30;99.90
44271;DHT22;29963;44.594;11.368;2023-05-24T08:47:28;23.40;99.90
44271;DHT22;29963;44.594;11.368;2023-05-24T08:49:55;23.50;99.90
44271;DHT22;29963;44.594;11.368;2023-05-24T08:52:22;23.60;99.90
44271;DHT22;29963;44.594;11.368;2023-05-24T08:54:48;23.60;99.90
44271;DHT22;29963;44.594;11.368;2023-05-24T08:57:15;23.70;99.90
44271;DHT22;29963;44.594;11.368;2023-05-24T08:59:41;23.70;99.90
44271;DHT22;29963;44.594;11.368;2023-05-24T09:02:10;23.70;99.90
44271;DHT22;29963;44.594;11.368;2023-05-24T09:04:38;23.70;99.90
44271;DHT22;29963;44.594;11.368;2023-05-24T09:07:06;23.80;99.90
44271;DHT22;29963;44.594;11.368;2023-05-24T09:09:33;23.90;99.90
44271;DHT22;29963;44.594;11.368;2023-05-24T09:12:03;23.90;99.90
44271;DHT22;29963;44.594;11.368;2023-05-24T09:14:29;24.00;99.90
44271;DHT22;29963;44.594;11.368;2023-05-24T09:16:55;24.10;99.90
44271;DHT22;29963;44.594;11.368;2023-05-24T09:19:21;24.10;99.90
44271;DHT22;29963;44.594;11.368;2023-05-24T09:21:48;24.10;99.90
44271;DHT22;29963;44.594;11.368;2023-05-24T09:24:15;24.20;99.90
44271;DHT22;29963;44.594;11.368;2023-05-24T09:26:41;24.30;99.90
44271;DHT22;29963;44.594;11.368;2023-05-24T09:29:07;24.30;99.90
44271;DHT22;29963;44.594;11.368;2023-05-24T09:31:35;24.30;99.90
44271;DHT22;29963;44.594;11.368;2023-05-24T09:34:01;24.40;99.90
44271;DHT22;29963;44.594;11.368;2023-05-24T09:36:27;24.50;99.90
44271;DHT22;29963;44.594;11.368;2023-05-24T09:39:08;24.50;99.90
44271;DHT22;29963;44.594;11.368;2023-05-24T09:41:35;24.50;99.90
44271;DHT22;29963;44.594;11.368;2023-05-24T09:44:02;24.50;99.90
44271;DHT22;29963;44.594;11.368;2023-05-24T09:46:28;24.50;99.90
44271;DHT22;29963;44.594;11.368;2023-05-24T09:48:57;24.60;99.90
44271;DHT22;29963;44.594;11.368;2023-05-24T09:51:23;24.70;99.90
44271;DHT22;29963;44.594;11.368;2023-05-24T09:53:48;24.80;99.90
44271;DHT22;29963;44.594;11.368;2023-05-24T09:56:17;24.90;99.90
44271;DHT22;29963;44.594;11.368;2023-05-24T09:58:44;24.90;99.90
44271;DHT22;29963;44.594;11.368;2023-05-24T10:03:36;24.90;99.90
44271;DHT22;29963;44.594;11.368;2023-05-24T10:06:03;25.00;99.90
44271;DHT22;29963;44.594;11.368;2023-05-24T10:08:33;24.90;99.90
44271;DHT22;29963;44.594;11.368;2023-05-24T10:11:01;25.00;99.90
44271;DHT22;29963;44.594;11.368;2023-05-24T10:13:29;25.10;99.90
44271;DHT22;29963;44.594;11.368;2023-05-24T10:15:55;25.10;99.90
44271;DHT22;29963;44.594;11.368;2023-05-24T10:18:21;25.20;99.90
44271;DHT22;29963;44.594;11.368;2023-05-24T10:20:47;25.20;99.90
44271;DHT22;29963;44.594;11.368;2023-05-24T10:23:19;25.20;99.90
44271;DHT22;29963;44.594;11.368;2023-05-24T10:25:50;25.30;99.90
44271;DHT22;29963;44.594;11.368;2023-05-24T10:28:17;25.40;99.90
44271;DHT22;29963;44.594;11.368;2023-05-24T10:33:41;25.40;99.90
44271;DHT22;29963;44.594;11.368;2023-05-24T10:36:12;25.50;99.90
44271;DHT22;29963;44.594;11.368;2023-05-24T10:38:39;25.60;99.90
44271;DHT22;29963;44.594;11.368;2023-05-24T10:41:05;25.60;99.90
44271;DHT22;29963;44.594;11.368;2023-05-24T10:43:35;25.70;99.90
44271;DHT22;29963;44.594;11.368;2023-05-24T10:46:02;25.80;99.90
44271;DHT22;29963;44.594;11.368;2023-05-24T10:50:54;26.00;99.90
44271;DHT22;29963;44.594;11.368;2023-05-24T10:53:25;26.10;99.90
44271;DHT22;29963;44.594;11.368;2023-05-24T10:56:02;26.20;99.90
44271;DHT22;29963;44.594;11.368;2023-05-24T11:01:32;26.70;99.90
44271;DHT22;29963;44.594;11.368;2023-05-24T11:04:11;26.50;99.90
44271;DHT22;29963;44.594;11.368;2023-05-24T11:07:05;26.60;99.90
44271;DHT22;29963;44.594;11.368;2023-05-24T11:09:34;26.60;99.90
44271;DHT22;29963;44.594;11.368;2023-05-24T11:12:02;26.60;99.90
44271;DHT22;29963;44.594;11.368;2023-05-24T11:14:39;26.60;99.90
44271;DHT22;29963;44.594;11.368;2023-05-24T11:17:06;26.60;99.90
44271;DHT22;29963;44.594;11.368;2023-05-24T11:19:37;26.60;99.90
44271;DHT22;29963;44.594;11.368;2023-05-24T11:22:06;26.70;99.90
44271;DHT22;29963;44.594;11.368;2023-05-24T11:24:32;26.70;99.90
44271;DHT22;29963;44.594;11.368;2023-05-24T11:26:59;26.80;99.90
44271;DHT22;29963;44.594;11.368;2023-05-24T11:29:27;26.80;99.90
44271;DHT22;29963;44.594;11.368;2023-05-24T11:31:54;26.90;99.90
44271;DHT22;29963;44.594;11.368;2023-05-24T11:34:30;26.90;99.90
44271;DHT22;29963;44.594;11.368;2023-05-24T11:36:57;26.90;99.90
44271;DHT22;29963;44.594;11.368;2023-05-24T11:39:31;26.90;99.90
44271;DHT22;29963;44.594;11.368;2023-05-24T11:41:58;27.00;99.90
44271;DHT22;29963;44.594;11.368;2023-05-24T11:44:23;27.00;99.90
44271;DHT22;29963;44.594;11.368;2023-05-24T11:46:56;27.10;99.90
44271;DHT22;29963;44.594;11.368;2023-05-24T11:49:22;27.20;99.90
44271;DHT22;29963;44.594;11.368;2023-05-24T11:51:47;27.20;99.90
44271;DHT22;29963;44.594;11.368;2023-05-24T11:54:13;27.30;99.90
44271;DHT22;29963;44.594;11.368;2023-05-24T11:56:38;27.10;99.90
44271;DHT22;29963;44.594;11.368;2023-05-24T12:01:30;27.40;99.90
44271;DHT22;29963;44.594;11.368;2023-05-24T12:03:56;27.50;99.90
44271;DHT22;29963;44.594;11.368;2023-05-24T12:06:21;27.50;99.90
44271;DHT22;29963;44.594;11.368;2023-05-24T12:08:47;27.60;99.90
44271;DHT22;29963;44.594;11.368;2023-05-24T12:11:14;27.60;99.90
44271;DHT22;29963;44.594;11.368;2023-05-24T12:13:40;27.60;99.90
44271;DHT22;29963;44.594;11.368;2023-05-24T12:16:06;27.70;99.90
44271;DHT22;29963;44.594;11.368;2023-05-24T12:18:32;27.70;99.90
44271;DHT22;29963;44.594;11.368;2023-05-24T12:20:58;27.70;99.50
44271;DHT22;29963;44.594;11.368;2023-05-24T12:23:25;27.80;99.90
44271;DHT22;29963;44.594;11.368;2023-05-24T12:25:59;27.80;99.90
44271;DHT22;29963;44.594;11.368;2023-05-24T12:28:25;27.90;99.90
44271;DHT22;29963;44.594;11.368;2023-05-24T12:30:52;27.90;99.90
44271;DHT22;29963;44.594;11.368;2023-05-24T12:33:18;27.90;99.90
44271;DHT22;29963;44.594;11.368;2023-05-24T12:35:45;28.00;99.90
44271;DHT22;29963;44.594;11.368;2023-05-24T12:38:11;28.00;99.90
44271;DHT22;29963;44.594;11.368;2023-05-24T12:40:36;28.00;99.90
44271;DHT22;29963;44.594;11.368;2023-05-24T12:43:03;28.10;99.90
44271;DHT22;29963;44.594;11.368;2023-05-24T12:45:29;28.20;99.90
44271;DHT22;29963;44.594;11.368;2023-05-24T12:47:56;28.20;99.90
44271;DHT22;29963;44.594;11.368;2023-05-24T12:50:24;28.30;99.90
44271;DHT22;29963;44.594;11.368;2023-05-24T12:52:51;28.30;99.90
44271;DHT22;29963;44.594;11.368;2023-05-24T12:55:23;28.40;99.90
44271;DHT22;29963;44.594;11.368;2023-05-24T12:57:50;28.40;99.90
44271;DHT22;29963;44.594;11.368;2023-05-24T13:00:28;28.40;99.90
44271;DHT22;29963;44.594;11.368;2023-05-24T13:02:57;28.50;99.90
44271;DHT22;29963;44.594;11.368;2023-05-24T13:05:26;28.60;99.90
44271;DHT22;29963;44.594;11.368;2023-05-24T13:07:55;28.70;99.90
44271;DHT22;29963;44.594;11.368;2023-05-24T13:10:24;28.70;99.20
44271;DHT22;29963;44.594;11.368;2023-05-24T13:12:50;28.70;99.50
44271;DHT22;29963;44.594;11.368;2023-05-24T13:15:16;28.70;99.50
44271;DHT22;29963;44.594;11.368;2023-05-24T13:17:44;28.70;98.90
44271;DHT22;29963;44.594;11.368;2023-05-24T13:20:11;28.60;99.30
44271;DHT22;29963;44.594;11.368;2023-05-24T13:22:38;28.60;99.80
44271;DHT22;29963;44.594;11.368;2023-05-24T13:25:05;28.60;98.90
44271;DHT22;29963;44.594;11.368;2023-05-24T13:27:31;28.50;97.30
44271;DHT22;29963;44.594;11.368;2023-05-24T13:29:57;28.40;97.00
44271;DHT22;29963;44.594;11.368;2023-05-24T13:32:24;28.30;96.70
44271;DHT22;29963;44.594;11.368;2023-05-24T13:34:49;28.10;95.90
44271;DHT22;29963;44.594;11.368;2023-05-24T13:37:16;28.10;95.10
44271;DHT22;29963;44.594;11.368;2023-05-24T13:39:42;28.00;95.90
44271;DHT22;29963;44.594;11.368;2023-05-24T13:42:08;28.00;96.70
44271;DHT22;29963;44.594;11.368;2023-05-24T13:44:34;27.80;97.00
44271;DHT22;29963;44.594;11.368;2023-05-24T13:47:00;27.80;97.20
44271;DHT22;29963;44.594;11.368;2023-05-24T13:49:26;27.70;97.80
44271;DHT22;29963;44.594;11.368;2023-05-24T13:51:53;27.70;98.40
44271;DHT22;29963;44.594;11.368;2023-05-24T13:54:19;27.60;98.60
44271;DHT22;29963;44.594;11.368;2023-05-24T13:56:45;27.60;99.40
44271;DHT22;29963;44.594;11.368;2023-05-24T13:59:13;27.50;99.70
44271;DHT22;29963;44.594;11.368;2023-05-24T14:01:39;27.40;99.90
44271;DHT22;29963;44.594;11.368;2023-05-24T14:04:05;27.40;99.90
44271;DHT22;29963;44.594;11.368;2023-05-24T14:06:32;27.30;99.90
44271;DHT22;29963;44.594;11.368;2023-05-24T14:08:58;27.30;99.90
44271;DHT22;29963;44.594;11.368;2023-05-24T14:11:24;27.20;99.90
44271;DHT22;29963;44.594;11.368;2023-05-24T14:13:51;27.20;99.90
44271;DHT22;29963;44.594;11.368;2023-05-24T14:16:17;27.10;99.90
44271;DHT22;29963;44.594;11.368;2023-05-24T14:18:43;27.00;99.90
44271;DHT22;29963;44.594;11.368;2023-05-24T14:21:10;27.00;99.90
44271;DHT22;29963;44.594;11.368;2023-05-24T14:23:36;27.00;99.90
44271;DHT22;29963;44.594;11.368;2023-05-24T14:26:01;26.90;99.90
44271;DHT22;29963;44.594;11.368;2023-05-24T14:28:27;26.90;99.90
44271;DHT22;29963;44.594;11.368;2023-05-24T14:30:53;26.90;99.90
44271;DHT22;29963;44.594;11.368;2023-05-24T14:33:18;26.90;99.90
44271;DHT22;29963;44.594;11.368;2023-05-24T14:35:44;26.90;99.90
44271;DHT22;29963;44.594;11.368;2023-05-24T14:38:10;26.90;99.90
44271;DHT22;29963;44.594;11.368;2023-05-24T14:40:36;26.80;99.90
44271;DHT22;29963;44.594;11.368;2023-05-24T14:43:04;26.60;99.60
44271;DHT22;29963;44.594;11.368;2023-05-24T14:45:30;26.30;99.20
44271;DHT22;29963;44.594;11.368;2023-05-24T14:47:56;26.10;99.70
44271;DHT22;29963;44.594;11.368;2023-05-24T14:50:22;25.80;99.60
44271;DHT22;29963;44.594;11.368;2023-05-24T14:52:48;25.60;99.90
44271;DHT22;29963;44.594;11.368;2023-05-24T14:55:14;25.40;99.90
44271;DHT22;29963;44.594;11.368;2023-05-24T14:57:39;25.30;99.90
44271;DHT22;29963;44.594;11.368;2023-05-24T15:00:07;25.20;99.90
44271;DHT22;29963;44.594;11.368;2023-05-24T15:02:32;25.10;99.90
44271;DHT22;29963;44.594;11.368;2023-05-24T15:04:59;25.00;99.90
44271;DHT22;29963;44.594;11.368;2023-05-24T15:07:24;24.90;99.90
44271;DHT22;29963;44.594;11.368;2023-05-24T15:09:51;24.90;99.90
44271;DHT22;29963;44.594;11.368;2023-05-24T15:12:17;24.90;99.90
44271;DHT22;29963;44.594;11.368;2023-05-24T15:14:43;24.90;99.90
44271;DHT22;29963;44.594;11.368;2023-05-24T15:17:09;24.80;99.90
44271;DHT22;29963;44.594;11.368;2023-05-24T15:19:36;24.80;99.90
44271;DHT22;29963;44.594;11.368;2023-05-24T15:22:02;24.70;99.90
44271;DHT22;29963;44.594;11.368;2023-05-24T15:24:27;24.70;99.90
44271;DHT22;29963;44.594;11.368;2023-05-24T15:26:53;24.70;99.90
44271;DHT22;29963;44.594;11.368;2023-05-24T15:29:19;24.70;99.90
44271;DHT22;29963;44.594;11.368;2023-05-24T15:31:45;24.70;99.90
44271;DHT22;29963;44.594;11.368;2023-05-24T15:34:11;24.70;99.90
44271;DHT22;29963;44.594;11.368;2023-05-24T15:36:37;24.90;99.90
44271;DHT22;29963;44.594;11.368;2023-05-24T15:39:03;25.10;99.90